Weather at Savaneta Field [CLOSED]

Public forecast

Using degrees Celsius for public forecast. Weather courtesy of forecast.io.

Closest aviation weather report (METAR) to Savaneta Field

Closest report is Queen Beatrix International Airport, 4.7 nm (8.7 km) NW. Retrieved 2021/09/20 19:00 UTC (27 minutes ago):

TNCA 201900Z 08010KT 050V110 9999 FEW025 31/23 Q1009 NOSIG

Closest aviation forecast (TAF) to Savaneta Field

Closest forecast is Queen Beatrix International Airport, 4.7 nm (8.7 km) NW. Retrieved 2021/09/20 18:00 UTC (1 hour ago):

TAF TNCA 201800Z 2018/2018 08013KT 9999 FEW025